createdAt,value
2023-01-15T00:02:23.824Z,5.00
2023-01-15T00:04:51.956Z,5.10
2023-01-15T00:07:18.819Z,5.10
2023-01-15T00:09:46.472Z,5.10
2023-01-15T00:12:13.351Z,5.10
2023-01-15T00:14:40.253Z,5.10
2023-01-15T00:17:07.126Z,5.10
2023-01-15T00:19:34.044Z,5.20
2023-01-15T00:22:00.983Z,5.20
2023-01-15T00:24:46.359Z,5.20
2023-01-15T00:27:32.067Z,5.30
2023-01-15T00:29:59.033Z,5.40
2023-01-15T00:32:27.904Z,5.50
2023-01-15T00:34:54.783Z,5.60
2023-01-15T00:37:21.985Z,5.50
2023-01-15T00:39:49.051Z,5.80
2023-01-15T00:42:17.771Z,5.80
2023-01-15T00:44:44.815Z,5.80
2023-01-15T00:47:15.047Z,5.60
2023-01-15T00:49:42.963Z,5.70
2023-01-15T00:52:10.719Z,5.80
2023-01-15T00:54:37.719Z,6.10
2023-01-15T00:57:04.717Z,6.00
2023-01-15T00:59:31.668Z,6.50
2023-01-15T01:01:58.792Z,6.10
2023-01-15T01:04:25.896Z,6.50
2023-01-15T01:06:52.993Z,6.40
2023-01-15T01:09:19.999Z,6.10
2023-01-15T01:11:46.915Z,6.10
2023-01-15T01:14:13.825Z,6.10
2023-01-15T01:16:42.136Z,6.50
2023-01-15T01:19:14.555Z,6.20
2023-01-15T01:21:43.229Z,6.20
2023-01-15T01:24:13.040Z,6.30
2023-01-15T01:26:40.441Z,6.10
2023-01-15T01:29:07.722Z,6.20
2023-01-15T01:31:34.677Z,6.20
2023-01-15T01:34:01.655Z,6.20
2023-01-15T01:36:36.897Z,6.10
2023-01-15T01:39:06.002Z,6.30
2023-01-15T01:41:33.596Z,6.30
2023-01-15T01:44:03.849Z,6.10
2023-01-15T01:46:36.532Z,6.30
2023-01-15T01:49:09.444Z,6.10
2023-01-15T01:51:41.330Z,6.30
2023-01-15T01:54:11.135Z,6.00
2023-01-15T01:56:38.506Z,6.10
2023-01-15T01:59:07.083Z,6.10
2023-01-15T02:01:34.880Z,6.20
2023-01-15T02:04:03.334Z,6.20
2023-01-15T02:06:30.933Z,6.20
2023-01-15T02:08:57.912Z,6.40
2023-01-15T02:11:25.170Z,6.50
2023-01-15T02:14:00.775Z,6.60
2023-01-15T02:16:30.408Z,6.60
2023-01-15T02:19:16.214Z,6.40
2023-01-15T02:21:43.025Z,6.60
2023-01-15T02:24:30.276Z,6.40
2023-01-15T02:27:12.108Z,6.60
2023-01-15T02:29:58.353Z,6.70
2023-01-15T02:32:59.286Z,6.50
2023-01-15T02:35:39.205Z,6.30
2023-01-15T02:38:09.364Z,6.20
2023-01-15T02:40:38.402Z,6.20
2023-01-15T02:43:08.118Z,6.20
2023-01-15T02:45:39.950Z,6.40
2023-01-15T02:48:13.106Z,6.30
2023-01-15T02:50:43.595Z,6.40
2023-01-15T02:53:16.396Z,6.50
2023-01-15T02:55:47.411Z,6.20
2023-01-15T02:58:20.769Z,6.20
2023-01-15T03:00:51.953Z,6.60
2023-01-15T03:03:29.825Z,6.60
2023-01-15T03:06:16.965Z,6.20
2023-01-15T03:08:44.250Z,6.30
2023-01-15T03:11:20.158Z,6.30
2023-01-15T03:14:05.269Z,6.10
2023-01-15T03:16:43.568Z,6.50
2023-01-15T03:19:27.290Z,6.60
2023-01-15T03:22:05.329Z,6.50
2023-01-15T03:25:03.112Z,6.30
2023-01-15T03:27:30.455Z,6.40
2023-01-15T03:30:08.167Z,6.50
2023-01-15T03:32:35.659Z,6.30
2023-01-15T03:35:04.202Z,6.50
2023-01-15T03:37:32.129Z,6.80
2023-01-15T03:39:59.915Z,6.40
2023-01-15T03:42:47.010Z,6.30
2023-01-15T03:45:21.701Z,6.70
2023-01-15T03:48:19.044Z,6.70
2023-01-15T03:51:13.976Z,6.60
2023-01-15T03:53:54.565Z,6.50
2023-01-15T03:56:37.306Z,6.60
2023-01-15T03:59:15.849Z,6.20
2023-01-15T04:01:44.437Z,6.10
2023-01-15T04:04:14.017Z,6.50
2023-01-15T04:06:43.592Z,6.10
2023-01-15T04:09:13.227Z,6.40
2023-01-15T04:11:40.473Z,6.20
2023-01-15T04:14:08.128Z,6.00
2023-01-15T04:16:35.137Z,6.00
2023-01-15T04:19:02.236Z,6.20
2023-01-15T04:21:29.270Z,5.90
2023-01-15T04:23:56.282Z,6.00
2023-01-15T04:26:23.479Z,6.30
2023-01-15T04:28:50.451Z,6.00
2023-01-15T04:31:17.854Z,6.10
2023-01-15T04:33:44.890Z,6.40
2023-01-15T04:36:11.942Z,6.50
2023-01-15T04:38:38.854Z,6.20
2023-01-15T04:41:29.284Z,6.50
2023-01-15T04:44:08.978Z,6.20
2023-01-15T04:46:42.120Z,6.40
2023-01-15T04:49:12.048Z,6.40
2023-01-15T04:51:39.907Z,6.20
2023-01-15T04:54:08.992Z,6.30
2023-01-15T04:56:41.914Z,6.30
2023-01-15T04:59:09.090Z,6.20
2023-01-15T05:01:36.773Z,6.10
2023-01-15T05:04:04.043Z,6.10
2023-01-15T05:06:33.864Z,6.20
2023-01-15T05:09:01.513Z,5.80
2023-01-15T05:11:29.050Z,5.90
2023-01-15T05:13:56.350Z,5.70
2023-01-15T05:16:25.543Z,6.00
2023-01-15T05:18:54.162Z,5.80
2023-01-15T05:21:22.876Z,5.60
2023-01-15T05:23:52.320Z,5.60
2023-01-15T05:26:20.201Z,5.60
2023-01-15T05:28:47.877Z,5.60
2023-01-15T05:31:19.272Z,5.80
2023-01-15T05:33:47.897Z,5.50
2023-01-15T05:36:18.200Z,5.80
2023-01-15T05:38:45.509Z,5.90
2023-01-15T05:41:34.150Z,5.50
2023-01-15T05:44:25.324Z,5.40
2023-01-15T05:46:55.101Z,5.90
2023-01-15T05:49:24.201Z,5.50
2023-01-15T05:51:52.108Z,5.80
2023-01-15T05:54:24.950Z,5.70
2023-01-15T05:56:52.877Z,5.80
2023-01-15T05:59:22.436Z,5.40
2023-01-15T06:01:49.633Z,5.50
2023-01-15T06:04:21.002Z,5.60
2023-01-15T06:06:49.758Z,5.40
2023-01-15T06:09:16.766Z,5.30
2023-01-15T06:11:43.808Z,5.40
2023-01-15T06:14:12.341Z,5.70
2023-01-15T06:16:41.273Z,5.60
2023-01-15T06:19:09.581Z,5.60
2023-01-15T06:21:36.573Z,5.30
2023-01-15T06:24:04.086Z,5.20
2023-01-15T06:26:31.262Z,5.20
2023-01-15T06:28:58.555Z,5.20
2023-01-15T06:31:28.741Z,5.60
2023-01-15T06:33:56.060Z,5.40
2023-01-15T06:36:26.807Z,5.50
2023-01-15T06:38:54.493Z,5.60
2023-01-15T06:41:42.131Z,5.20
2023-01-15T06:44:35.848Z,5.40
2023-01-15T06:47:24.105Z,5.20
2023-01-15T06:49:56.276Z,5.30
2023-01-15T06:52:24.574Z,5.50
2023-01-15T06:54:51.898Z,5.40
2023-01-15T06:57:19.049Z,5.20
2023-01-15T06:59:46.580Z,5.30
2023-01-15T07:02:13.491Z,5.70
2023-01-15T07:04:40.499Z,5.40
2023-01-15T07:07:07.474Z,5.60
2023-01-15T07:09:34.525Z,5.30
2023-01-15T07:12:01.450Z,5.50
2023-01-15T07:14:28.485Z,5.30
2023-01-15T07:16:56.070Z,5.40
2023-01-15T07:19:23.105Z,5.40
2023-01-15T07:21:50.111Z,5.10
2023-01-15T07:24:17.901Z,5.30
2023-01-15T07:26:46.014Z,5.40
2023-01-15T07:29:13.552Z,5.10
2023-01-15T07:31:41.519Z,5.10
2023-01-15T07:34:08.560Z,5.40
2023-01-15T07:36:36.936Z,5.30
2023-01-15T07:39:08.413Z,5.10
2023-01-15T07:41:54.102Z,5.00
2023-01-15T07:44:39.930Z,5.30
2023-01-15T07:47:34.468Z,5.40
2023-01-15T07:50:02.193Z,5.40
2023-01-15T07:52:29.097Z,5.10
2023-01-15T07:54:56.105Z,5.20
2023-01-15T07:57:23.437Z,5.00
2023-01-15T07:59:51.693Z,5.10
2023-01-15T08:02:19.086Z,5.30
2023-01-15T08:04:47.946Z,5.10
2023-01-15T08:07:15.967Z,5.10
2023-01-15T08:09:43.106Z,5.10
2023-01-15T08:12:29.895Z,5.00
2023-01-15T08:15:16.560Z,5.20
2023-01-15T08:17:44.868Z,5.10
2023-01-15T08:20:17.404Z,5.10
2023-01-15T08:22:45.134Z,4.90
2023-01-15T08:25:14.856Z,5.10
2023-01-15T08:27:42.542Z,4.90
2023-01-15T08:30:13.694Z,5.00
2023-01-15T08:32:40.677Z,4.80
2023-01-15T08:35:08.163Z,4.80
2023-01-15T08:37:35.485Z,4.70
2023-01-15T08:40:02.475Z,4.70
2023-01-15T08:42:29.454Z,4.90
2023-01-15T08:44:56.440Z,4.60
2023-01-15T08:47:23.346Z,4.70
2023-01-15T08:49:50.328Z,5.00
2023-01-15T08:52:17.561Z,5.00
2023-01-15T08:54:44.618Z,5.00
2023-01-15T08:57:13.743Z,5.00
2023-01-15T08:59:43.485Z,4.90
2023-01-15T09:02:15.287Z,5.10
2023-01-15T09:04:42.438Z,5.10
2023-01-15T09:07:09.533Z,5.10
2023-01-15T09:09:36.602Z,4.90
2023-01-15T09:12:03.701Z,4.90
2023-01-15T09:14:58.841Z,4.80
2023-01-15T09:17:17.611Z,5.10
2023-01-15T09:19:44.532Z,4.80
2023-01-15T09:22:11.532Z,4.80
2023-01-15T09:24:38.500Z,4.80
2023-01-15T09:27:05.597Z,4.80
2023-01-15T09:29:32.533Z,5.00
2023-01-15T09:31:59.651Z,5.00
2023-01-15T09:34:26.558Z,5.00
2023-01-15T09:36:53.522Z,5.00
2023-01-15T09:39:20.582Z,4.70
2023-01-15T09:42:07.932Z,4.80
2023-01-15T09:44:55.888Z,4.90
2023-01-15T09:47:54.846Z,5.00
2023-01-15T09:50:31.180Z,5.00
2023-01-15T09:53:11.015Z,4.90
2023-01-15T09:55:46.680Z,4.90
2023-01-15T09:58:16.929Z,5.10
2023-01-15T10:00:49.335Z,5.10
2023-01-15T10:03:42.782Z,5.00
2023-01-15T10:06:09.706Z,5.10
2023-01-15T10:08:42.720Z,5.20
2023-01-15T10:11:47.933Z,5.00
2023-01-15T10:14:31.345Z,5.00
2023-01-15T10:16:58.575Z,5.00
2023-01-15T10:19:31.851Z,5.20
2023-01-15T10:22:26.975Z,5.20
2023-01-15T10:24:58.287Z,5.20
2023-01-15T10:27:30.275Z,5.10
2023-01-15T10:30:23.312Z,5.20
2023-01-15T10:33:03.385Z,5.20
2023-01-15T10:35:40.997Z,5.20
2023-01-15T10:38:16.793Z,5.20
2023-01-15T10:40:43.647Z,5.20
2023-01-15T10:43:35.214Z,5.30
2023-01-15T10:46:10.325Z,5.40
2023-01-15T10:48:42.573Z,5.30
2023-01-15T10:51:26.860Z,5.40
2023-01-15T10:54:19.187Z,5.40
2023-01-15T10:56:58.342Z,5.40
2023-01-15T10:59:56.086Z,5.40
2023-01-15T11:02:38.148Z,5.40
2023-01-15T11:05:05.942Z,5.40
2023-01-15T11:08:10.403Z,5.40
2023-01-15T11:10:35.271Z,5.50
2023-01-15T11:13:42.962Z,5.60
2023-01-15T11:16:44.396Z,5.60
2023-01-15T11:19:37.233Z,5.70
2023-01-15T11:22:11.689Z,5.80
2023-01-15T11:24:49.780Z,5.80
2023-01-15T11:27:20.300Z,5.80
2023-01-15T11:29:52.735Z,5.90
2023-01-15T11:32:30.768Z,5.90
2023-01-15T11:35:00.002Z,5.90
2023-01-15T11:37:28.039Z,6.00
2023-01-15T11:40:07.257Z,6.10
2023-01-15T11:42:56.106Z,6.20
2023-01-15T11:45:43.623Z,6.30
2023-01-15T11:48:41.146Z,6.30
2023-01-15T11:51:09.253Z,6.30
2023-01-15T11:53:46.646Z,6.30
2023-01-15T11:56:20.619Z,6.30
2023-01-15T11:58:51.353Z,6.40
2023-01-15T12:01:28.453Z,6.40
2023-01-15T12:03:56.460Z,6.50
2023-01-15T12:06:26.930Z,6.60
2023-01-15T12:09:04.264Z,6.70
2023-01-15T12:11:47.120Z,6.80
2023-01-15T12:14:35.349Z,6.90
2023-01-15T12:17:02.216Z,7.00
2023-01-15T12:19:46.035Z,7.30
2023-01-15T12:22:29.276Z,7.40
2023-01-15T12:24:56.607Z,7.60
2023-01-15T12:27:38.635Z,8.00
2023-01-15T12:30:26.989Z,8.00
2023-01-15T12:33:10.265Z,8.20
2023-01-15T12:35:43.471Z,8.30
2023-01-15T12:38:20.911Z,8.30
2023-01-15T12:41:02.113Z,8.50
2023-01-15T12:43:47.833Z,8.70
2023-01-15T12:46:19.184Z,8.90
2023-01-15T12:49:13.233Z,9.20
2023-01-15T12:52:14.507Z,9.00
2023-01-15T12:54:51.869Z,9.60
2023-01-15T12:57:31.445Z,9.60
2023-01-15T13:00:04.209Z,9.60
2023-01-15T13:02:52.256Z,9.20
2023-01-15T13:05:27.626Z,8.50
2023-01-15T13:08:06.619Z,8.70
2023-01-15T13:10:41.381Z,8.70
2023-01-15T13:13:24.717Z,8.30
2023-01-15T13:16:01.038Z,8.30
2023-01-15T13:18:48.135Z,8.10
2023-01-15T13:21:18.042Z,7.60
2023-01-15T13:24:10.264Z,7.50
2023-01-15T13:27:16.467Z,7.40
2023-01-15T13:30:03.022Z,7.40
2023-01-15T13:32:44.136Z,7.50
2023-01-15T13:35:29.947Z,7.50
2023-01-15T13:38:00.334Z,7.60
2023-01-15T13:40:40.043Z,7.30
2023-01-15T13:43:09.887Z,7.10
2023-01-15T13:45:47.821Z,6.80
2023-01-15T13:48:24.167Z,6.60
2023-01-15T13:50:57.905Z,6.70
2023-01-15T13:53:58.185Z,6.60
2023-01-15T13:56:33.598Z,6.60
2023-01-15T13:59:06.293Z,6.60
2023-01-15T14:01:37.619Z,6.30
2023-01-15T14:04:14.348Z,6.40
2023-01-15T14:06:49.904Z,6.40
2023-01-15T14:09:23.109Z,6.30
2023-01-15T14:12:08.089Z,6.30
2023-01-15T14:14:55.976Z,6.40
2023-01-15T14:17:41.775Z,6.40
2023-01-15T14:20:28.209Z,6.30
2023-01-15T14:23:06.287Z,6.10
2023-01-15T14:26:00.652Z,6.10
2023-01-15T14:28:51.883Z,5.90
2023-01-15T14:31:21.622Z,5.80
2023-01-15T14:33:57.730Z,5.70
2023-01-15T14:36:29.562Z,5.60
2023-01-15T14:39:00.193Z,5.60
2023-01-15T14:41:59.484Z,5.50
2023-01-15T14:44:31.722Z,5.40
2023-01-15T14:47:06.763Z,5.40
2023-01-15T14:49:50.087Z,5.40
2023-01-15T14:52:23.604Z,5.50
2023-01-15T14:54:51.242Z,5.50
2023-01-15T14:57:18.672Z,5.40
2023-01-15T14:59:53.549Z,5.40
2023-01-15T15:02:31.608Z,5.40
2023-01-15T15:05:00.527Z,5.40
2023-01-15T15:07:32.642Z,5.40
2023-01-15T15:10:03.453Z,5.20
2023-01-15T15:12:56.900Z,5.10
2023-01-15T15:15:41.206Z,5.20
2023-01-15T15:18:29.192Z,5.00
2023-01-15T15:20:59.224Z,4.90
2023-01-15T15:23:38.209Z,4.90
2023-01-15T15:26:19.000Z,5.00
2023-01-15T15:29:10.089Z,4.90
2023-01-15T15:31:57.428Z,5.00
2023-01-15T15:34:40.280Z,5.00
2023-01-15T15:37:14.459Z,4.90
2023-01-15T15:39:45.873Z,4.80
2023-01-15T15:42:45.359Z,4.70
2023-01-15T15:45:50.480Z,4.80
2023-01-15T15:48:42.820Z,4.70
2023-01-15T15:51:37.339Z,4.70
2023-01-15T15:54:16.570Z,4.60
2023-01-15T15:56:48.350Z,4.50
2023-01-15T15:59:28.852Z,4.50
2023-01-15T16:01:58.040Z,4.50
2023-01-15T16:04:25.327Z,4.50
2023-01-15T16:06:52.322Z,4.50
2023-01-15T16:09:24.039Z,4.40
2023-01-15T16:11:54.533Z,4.50
2023-01-15T16:14:22.825Z,4.40
2023-01-15T16:16:51.145Z,4.40
2023-01-15T16:19:22.844Z,4.40
2023-01-15T16:21:51.468Z,4.40
2023-01-15T16:24:27.574Z,4.30
2023-01-15T16:27:16.320Z,4.30
2023-01-15T16:29:50.674Z,4.20
2023-01-15T16:32:28.458Z,4.20
2023-01-15T16:35:23.332Z,4.20
2023-01-15T16:37:56.595Z,4.10
2023-01-15T16:40:29.447Z,4.10
2023-01-15T16:43:15.363Z,4.10
2023-01-15T16:46:07.270Z,4.10
2023-01-15T16:48:39.755Z,4.10
2023-01-15T16:51:31.425Z,4.00
2023-01-15T16:54:44.626Z,4.00
2023-01-15T16:57:28.354Z,4.00
2023-01-15T16:59:58.448Z,4.00
2023-01-15T17:02:29.991Z,4.00
2023-01-15T17:04:57.347Z,4.00
2023-01-15T17:07:37.349Z,4.00
2023-01-15T17:10:17.592Z,4.00
2023-01-15T17:12:44.844Z,4.00
2023-01-15T17:15:14.563Z,4.00
2023-01-15T17:17:42.931Z,4.00
2023-01-15T17:20:12.988Z,4.00
2023-01-15T17:22:43.164Z,3.90
2023-01-15T17:25:42.383Z,4.00
2023-01-15T17:28:12.629Z,4.00
2023-01-15T17:30:39.627Z,4.10
2023-01-15T17:33:08.326Z,4.10
2023-01-15T17:35:37.812Z,4.00
2023-01-15T17:38:06.859Z,4.00
2023-01-15T17:40:33.951Z,4.00
2023-01-15T17:43:01.132Z,4.00
2023-01-15T17:45:30.060Z,4.00
2023-01-15T17:47:57.087Z,4.10
2023-01-15T17:50:24.655Z,4.10
2023-01-15T17:52:52.464Z,4.00
2023-01-15T17:55:41.409Z,3.90
2023-01-15T17:58:34.335Z,3.90
2023-01-15T18:01:24.305Z,3.90
2023-01-15T18:04:12.385Z,3.90
2023-01-15T18:06:43.303Z,3.90
2023-01-15T18:09:10.362Z,3.90
2023-01-15T18:11:37.258Z,3.90
2023-01-15T18:14:04.543Z,3.80
2023-01-15T18:16:31.712Z,3.80
2023-01-15T18:18:58.753Z,3.80
2023-01-15T18:21:25.792Z,3.70
2023-01-15T18:23:52.818Z,3.70
2023-01-15T18:26:20.150Z,3.70
2023-01-15T18:28:47.565Z,3.70
2023-01-15T18:31:14.658Z,3.70
2023-01-15T18:33:42.035Z,3.80
2023-01-15T18:36:37.814Z,3.70
2023-01-15T18:39:07.504Z,3.70
2023-01-15T18:41:36.039Z,3.60
2023-01-15T18:44:32.006Z,3.60
2023-01-15T18:47:01.676Z,3.60
2023-01-15T18:49:29.463Z,3.60
2023-01-15T18:52:15.657Z,3.60
2023-01-15T18:54:42.785Z,3.70
2023-01-15T18:57:10.249Z,3.70
2023-01-15T18:59:37.405Z,3.60
2023-01-15T19:02:05.786Z,3.70
2023-01-15T19:04:33.338Z,3.70
2023-01-15T19:07:00.295Z,3.70
2023-01-15T19:09:27.242Z,3.80
2023-01-15T19:11:54.685Z,3.70
2023-01-15T19:14:40.733Z,3.70
2023-01-15T19:17:33.005Z,3.60
2023-01-15T19:20:00.037Z,3.60
2023-01-15T19:22:45.882Z,3.60
2023-01-15T19:25:13.173Z,3.60
2023-01-15T19:27:40.086Z,3.60
2023-01-15T19:30:08.160Z,3.60
2023-01-15T19:32:35.405Z,3.60
2023-01-15T19:35:02.975Z,3.60
2023-01-15T19:37:31.638Z,3.60
2023-01-15T19:39:58.848Z,3.50
2023-01-15T19:42:44.640Z,3.50
2023-01-15T19:45:30.367Z,3.40
2023-01-15T19:48:17.992Z,3.40
2023-01-15T19:50:46.658Z,3.50
2023-01-15T19:53:14.742Z,3.40
2023-01-15T19:55:45.401Z,3.50
2023-01-15T19:58:15.052Z,3.40
2023-01-15T20:00:43.994Z,3.40
2023-01-15T20:03:12.304Z,3.40
2023-01-15T20:05:41.430Z,3.40
2023-01-15T20:08:13.927Z,3.40
2023-01-15T20:10:43.181Z,3.30
2023-01-15T20:13:34.617Z,3.30
2023-01-15T20:16:11.285Z,3.30
2023-01-15T20:18:38.457Z,3.30
2023-01-15T20:21:05.792Z,3.30
2023-01-15T20:23:33.183Z,3.30
2023-01-15T20:26:05.010Z,3.30
2023-01-15T20:28:32.201Z,3.30
2023-01-15T20:31:00.134Z,3.20
2023-01-15T20:33:27.140Z,3.20
2023-01-15T20:35:54.762Z,3.20
2023-01-15T20:38:24.217Z,3.20
2023-01-15T20:40:52.253Z,3.20
2023-01-15T20:43:38.876Z,3.20
2023-01-15T20:46:09.293Z,3.10
2023-01-15T20:48:54.916Z,3.10
2023-01-15T20:51:22.134Z,3.10
2023-01-15T20:53:50.352Z,3.10
2023-01-15T20:56:18.961Z,3.10
2023-01-15T20:58:46.117Z,3.10
2023-01-15T21:01:14.258Z,3.00
2023-01-15T21:03:41.453Z,3.00
2023-01-15T21:06:09.488Z,3.00
2023-01-15T21:08:36.860Z,3.00
2023-01-15T21:11:04.005Z,3.00
2023-01-15T21:13:31.363Z,3.00
2023-01-15T21:16:01.579Z,3.00
2023-01-15T21:18:30.543Z,2.90
2023-01-15T21:20:57.549Z,2.90
2023-01-15T21:23:25.068Z,3.00
2023-01-15T21:25:52.110Z,2.90
2023-01-15T21:28:19.128Z,2.90
2023-01-15T21:30:46.124Z,2.90
2023-01-15T21:33:13.958Z,2.90
2023-01-15T21:35:41.519Z,2.90
2023-01-15T21:38:09.110Z,2.90
2023-01-15T21:40:37.947Z,2.90
2023-01-15T21:43:24.584Z,2.90
2023-01-15T21:45:51.752Z,2.90
2023-01-15T21:48:19.241Z,2.90
2023-01-15T21:50:46.321Z,2.80
2023-01-15T21:53:13.648Z,2.80
2023-01-15T21:55:47.974Z,2.80
2023-01-15T21:58:15.051Z,2.70
2023-01-15T22:00:43.051Z,2.70
2023-01-15T22:03:12.169Z,2.60
2023-01-15T22:05:39.196Z,2.60
2023-01-15T22:08:06.194Z,2.60
2023-01-15T22:10:34.899Z,2.60
2023-01-15T22:13:01.901Z,2.60
2023-01-15T22:15:28.885Z,2.50
2023-01-15T22:17:56.201Z,2.60
2023-01-15T22:20:23.250Z,2.60
2023-01-15T22:22:50.317Z,2.60
2023-01-15T22:25:17.537Z,2.60
2023-01-15T22:27:44.608Z,2.60
2023-01-15T22:30:13.907Z,2.60
2023-01-15T22:32:41.061Z,2.70
2023-01-15T22:35:08.882Z,2.60
2023-01-15T22:37:35.890Z,2.70
2023-01-15T22:40:04.567Z,2.70
2023-01-15T22:42:33.166Z,2.60
2023-01-15T22:45:00.939Z,2.60
2023-01-15T22:47:29.619Z,2.60
2023-01-15T22:49:57.237Z,2.60
2023-01-15T22:52:25.957Z,2.60
2023-01-15T22:54:53.534Z,2.60
2023-01-15T22:57:22.713Z,2.60
2023-01-15T22:59:52.910Z,2.60
2023-01-15T23:02:39.821Z,2.50
2023-01-15T23:05:07.862Z,2.50
2023-01-15T23:07:40.658Z,2.50
2023-01-15T23:10:10.567Z,2.50
2023-01-15T23:12:39.414Z,2.40
2023-01-15T23:15:09.229Z,2.40
2023-01-15T23:17:36.288Z,2.30
2023-01-15T23:20:03.393Z,2.20
2023-01-15T23:22:30.664Z,2.20
2023-01-15T23:24:58.006Z,2.20
2023-01-15T23:27:25.092Z,2.20
2023-01-15T23:29:52.138Z,2.10
2023-01-15T23:32:19.173Z,2.00
2023-01-15T23:34:46.246Z,2.00
2023-01-15T23:37:13.282Z,2.00
2023-01-15T23:39:40.209Z,1.90
2023-01-15T23:42:27.308Z,1.90
2023-01-15T23:45:12.708Z,1.90
2023-01-15T23:47:39.656Z,1.90
2023-01-15T23:50:06.779Z,1.90
2023-01-15T23:52:34.032Z,1.80
2023-01-15T23:55:04.185Z,1.80
2023-01-15T23:57:31.182Z,1.80
2023-01-15T23:59:58.064Z,1.70
